Time;durP1;ratioP1;P1;durP2;ratioP2;P2;SDS_P1;SDS_P2;PMS_P1;PMS_P2;Temp;Humidity;BMP_temperature;BMP_pressure;BME280_temperature;BME280_humidity;BME280_pressure;Samples;Min_cycle;Max_cycle;Signal;HPM_P1;HPM_P2
2021/09/23 00:02:16;;;;;;;11.30;10.20;;;15.90;99.90;;;;;;5135242;27;20471;-59
2021/09/23 00:04:44;;;;;;;12.60;10.60;;;15.90;99.90;;;;;;5135672;27;20551;-60
2021/09/23 00:07:11;;;;;;;9.73;8.70;;;15.90;99.90;;;;;;5135246;27;20463;-58
2021/09/23 00:09:38;;;;;;;11.33;10.17;;;15.90;99.90;;;;;;5135312;27;20478;-59
2021/09/23 00:12:05;;;;;;;11.30;9.83;;;15.90;99.90;;;;;;5135111;27;20965;-59
2021/09/23 00:14:32;;;;;;;11.23;10.03;;;15.80;99.90;;;;;;5126236;27;20962;-59
2021/09/23 00:17:00;;;;;;;13.40;11.73;;;15.80;99.90;;;;;;5132463;27;20463;-56
2021/09/23 00:19:27;;;;;;;15.07;13.57;;;15.80;99.90;;;;;;5135564;27;20953;-59
2021/09/23 00:21:54;;;;;;;11.93;10.57;;;15.80;99.90;;;;;;5135332;27;20460;-59
2021/09/23 00:24:21;;;;;;;11.70;10.50;;;15.70;99.90;;;;;;5135058;27;20458;-59
2021/09/23 00:26:47;;;;;;;11.30;10.20;;;15.80;99.90;;;;;;5135367;27;20455;-59
2021/09/23 00:29:14;;;;;;;11.77;10.77;;;15.70;99.90;;;;;;5134888;27;20466;-59
2021/09/23 00:31:41;;;;;;;13.90;12.50;;;15.80;99.90;;;;;;5135219;27;20468;-59
2021/09/23 00:34:09;;;;;;;10.77;9.90;;;15.80;99.90;;;;;;5135062;27;20783;-59
2021/09/23 00:36:36;;;;;;;13.50;12.20;;;15.70;99.90;;;;;;5134937;27;20554;-59
2021/09/23 00:39:03;;;;;;;15.60;14.03;;;15.70;99.90;;;;;;5134714;27;20467;-59
2021/09/23 00:41:30;;;;;;;14.37;12.87;;;15.80;99.90;;;;;;5135174;27;20452;-59
2021/09/23 00:43:57;;;;;;;14.30;12.90;;;15.70;99.90;;;;;;5135061;27;20468;-58
2021/09/23 00:46:24;;;;;;;18.40;14.77;;;15.70;99.90;;;;;;5134407;27;20972;-59
2021/09/23 00:48:51;;;;;;;15.27;13.87;;;15.70;99.90;;;;;;5134958;27;20468;-57
2021/09/23 00:51:20;;;;;;;15.60;13.93;;;15.70;99.90;;;;;;5134255;27;20478;-59
2021/09/23 00:53:48;;;;;;;15.83;14.33;;;15.70;99.90;;;;;;5134869;27;20977;-58
2021/09/23 00:56:15;;;;;;;15.10;12.90;;;15.70;99.90;;;;;;5134406;27;20478;-58
2021/09/23 00:58:41;;;;;;;14.10;12.70;;;15.70;99.90;;;;;;5134707;27;20471;-59
2021/09/23 01:01:08;;;;;;;16.30;14.60;;;15.70;99.90;;;;;;5134158;27;20478;-59
2021/09/23 01:03:37;;;;;;;16.53;14.83;;;15.70;99.90;;;;;;5134616;27;20929;-59
2021/09/23 01:06:03;;;;;;;26.77;19.90;;;15.70;99.90;;;;;;5129092;27;20460;-59
2021/09/23 01:08:32;;;;;;;16.57;15.00;;;15.80;99.90;;;;;;5134591;27;20478;-59
2021/09/23 01:10:58;;;;;;;15.83;14.37;;;15.70;99.90;;;;;;5134482;27;21000;-59
2021/09/23 01:13:25;;;;;;;16.47;14.87;;;15.70;99.90;;;;;;5133892;27;20957;-58
2021/09/23 01:15:52;;;;;;;16.40;14.60;;;15.70;99.90;;;;;;5130845;27;20464;-57
2021/09/23 01:18:19;;;;;;;18.93;17.03;;;15.70;99.90;;;;;;5133801;27;20468;-58
2021/09/23 01:20:47;;;;;;;18.53;16.70;;;15.80;99.90;;;;;;5133523;27;20474;-59
2021/09/23 01:23:15;;;;;;;19.90;16.33;;;15.80;99.90;;;;;;5133831;27;20485;-59
2021/09/23 01:25:42;;;;;;;17.10;15.33;;;15.70;99.90;;;;;;5134234;27;20459;-59
2021/09/23 01:28:09;;;;;;;18.80;16.80;;;15.70;99.90;;;;;;5133522;27;20474;-58
2021/09/23 01:30:36;;;;;;;22.57;20.13;;;15.70;99.90;;;;;;5134181;27;20538;-58
2021/09/23 01:33:03;;;;;;;18.70;16.67;;;15.70;99.90;;;;;;5134089;27;20481;-59
2021/09/23 01:35:30;;;;;;;17.57;15.87;;;15.70;99.90;;;;;;5133675;27;20448;-59
2021/09/23 01:37:57;;;;;;;18.30;16.43;;;15.70;99.90;;;;;;5134182;27;20459;-60
2021/09/23 01:40:25;;;;;;;17.60;15.80;;;15.70;99.90;;;;;;5133301;27;20467;-59
2021/09/23 01:42:52;;;;;;;19.30;17.40;;;15.80;99.90;;;;;;5133670;27;20467;-59
2021/09/23 01:45:19;;;;;;;19.13;16.07;;;15.70;99.90;;;;;;5133385;27;20797;-59
2021/09/23 01:47:46;;;;;;;18.87;16.90;;;15.70;99.90;;;;;;5133897;27;20463;-57
2021/09/23 01:50:16;;;;;;;18.23;16.27;;;15.70;99.90;;;;;;5128275;27;20474;-58
2021/09/23 01:52:43;;;;;;;23.73;21.27;;;15.70;99.90;;;;;;5133938;27;20456;-59
2021/09/23 01:55:10;;;;;;;20.10;18.00;;;15.70;99.90;;;;;;5133414;27;20865;-58
2021/09/23 01:57:39;;;;;;;19.17;17.17;;;15.70;99.90;;;;;;5133852;27;20464;-59
2021/09/23 02:00:07;;;;;;;22.03;18.53;;;15.70;99.90;;;;;;5127018;27;20467;-58
2021/09/23 02:02:34;;;;;;;20.10;18.13;;;15.70;99.90;;;;;;5133212;27;21262;-58
2021/09/23 02:05:01;;;;;;;18.50;16.70;;;15.70;99.90;;;;;;5133397;27;20475;-57
2021/09/23 02:07:28;;;;;;;22.30;17.67;;;15.60;99.90;;;;;;5128546;27;20800;-59
2021/09/23 02:09:55;;;;;;;21.90;19.00;;;15.60;99.90;;;;;;5133134;27;20468;-59
2021/09/23 02:12:22;;;;;;;20.60;18.50;;;15.60;99.90;;;;;;5133075;27;20466;-58
2021/09/23 02:14:50;;;;;;;19.33;16.63;;;15.60;99.90;;;;;;5133444;27;20952;-59
2021/09/23 02:17:17;;;;;;;21.17;18.90;;;15.60;99.90;;;;;;5133021;27;20478;-58
2021/09/23 02:19:44;;;;;;;21.77;18.23;;;15.60;99.90;;;;;;5133575;27;20474;-59
2021/09/23 02:22:11;;;;;;;20.83;18.87;;;15.50;99.90;;;;;;5132476;27;20455;-59
2021/09/23 02:24:38;;;;;;;22.53;20.13;;;15.60;99.90;;;;;;5133473;27;20470;-57
2021/09/23 02:27:06;;;;;;;21.80;18.03;;;15.50;99.90;;;;;;5133419;27;20468;-58
2021/09/23 02:29:34;;;;;;;23.10;19.50;;;15.50;99.90;;;;;;5132989;27;20474;-59
2021/09/23 02:32:02;;;;;;;20.20;18.10;;;15.50;99.90;;;;;;5135447;27;20559;-59
2021/09/23 02:34:29;;;;;;;22.80;18.50;;;15.50;99.90;;;;;;5137257;27;20474;-59
2021/09/23 02:36:56;;;;;;;25.80;22.30;;;15.50;99.90;;;;;;5137412;27;20976;-58
2021/09/23 02:39:23;;;;;;;21.60;19.30;;;15.40;99.90;;;;;;5137022;27;20982;-59
2021/09/23 02:41:50;;;;;;;25.00;21.70;;;15.40;99.90;;;;;;5137431;27;20477;-59
2021/09/23 02:44:17;;;;;;;19.70;17.37;;;15.40;99.90;;;;;;5136894;27;20471;-59
2021/09/23 02:46:44;;;;;;;23.23;20.20;;;15.40;99.90;;;;;;5136865;27;20491;-59
2021/09/23 02:49:12;;;;;;;21.63;19.50;;;15.40;99.90;;;;;;5137055;27;20482;-60
2021/09/23 02:51:39;;;;;;;22.77;19.20;;;15.40;99.90;;;;;;5136750;27;21278;-59
2021/09/23 02:54:06;;;;;;;26.07;23.13;;;15.40;99.90;;;;;;5137134;27;20949;-59
2021/09/23 02:56:33;;;;;;;29.17;22.40;;;15.40;99.90;;;;;;5136791;27;20468;-59
2021/09/23 02:59:00;;;;;;;27.13;22.87;;;15.30;99.90;;;;;;5127386;27;20464;-58
2021/09/23 03:01:27;;;;;;;24.77;21.07;;;15.30;99.90;;;;;;5135702;27;20469;-59
2021/09/23 03:03:54;;;;;;;23.50;20.07;;;15.30;99.90;;;;;;5136866;27;20480;-59
2021/09/23 03:06:22;;;;;;;25.40;21.70;;;15.30;99.90;;;;;;5132007;27;20478;-58
2021/09/23 03:08:49;;;;;;;21.10;19.10;;;15.30;99.90;;;;;;5137038;27;20473;-59
2021/09/23 03:11:15;;;;;;;26.03;21.10;;;15.30;99.90;;;;;;5136655;27;20470;-58
2021/09/23 03:13:43;;;;;;;26.47;23.40;;;15.30;99.90;;;;;;5136509;27;20456;-59
2021/09/23 03:16:09;;;;;;;24.73;20.73;;;15.30;99.90;;;;;;5136851;27;20476;-58
2021/09/23 03:18:36;;;;;;;28.47;21.87;;;15.30;99.90;;;;;;5136426;27;20497;-57
2021/09/23 03:21:04;;;;;;;26.57;23.70;;;15.30;99.90;;;;;;5136544;27;20558;-58
2021/09/23 03:23:32;;;;;;;30.87;24.53;;;15.30;99.90;;;;;;5136201;27;20482;-59
2021/09/23 03:25:59;;;;;;;27.23;24.33;;;15.20;99.90;;;;;;5135832;27;20460;-61
2021/09/23 03:28:27;;;;;;;26.90;23.70;;;15.20;99.90;;;;;;5128167;27;20524;-58
2021/09/23 03:30:54;;;;;;;25.43;22.93;;;15.20;99.90;;;;;;5136606;27;20466;-58
2021/09/23 03:33:21;;;;;;;29.53;24.40;;;15.20;99.90;;;;;;5136026;27;20468;-57
2021/09/23 03:35:47;;;;;;;26.73;23.83;;;15.10;99.90;;;;;;5136256;27;20470;-57
2021/09/23 03:38:14;;;;;;;30.40;25.73;;;15.20;99.90;;;;;;5136440;27;20960;-56
2021/09/23 03:40:45;;;;;;;29.30;25.67;;;15.10;99.90;;;;;;5135826;27;20466;-58
2021/09/23 03:43:12;;;;;;;30.43;25.40;;;15.10;99.90;;;;;;5135675;27;20474;-56
2021/09/23 03:45:39;;;;;;;34.43;26.33;;;15.10;99.90;;;;;;5135170;27;20812;-58
2021/09/23 03:48:06;;;;;;;30.70;26.17;;;15.10;99.90;;;;;;5135941;27;20474;-58
2021/09/23 03:50:33;;;;;;;29.90;24.17;;;15.10;99.90;;;;;;5135679;27;20470;-59
2021/09/23 03:53:00;;;;;;;26.30;23.60;;;15.10;99.90;;;;;;5135986;27;20455;-58
2021/09/23 03:55:27;;;;;;;30.57;24.17;;;15.20;99.90;;;;;;5135609;27;20467;-58
2021/09/23 03:57:55;;;;;;;28.87;24.93;;;15.10;99.90;;;;;;5135874;27;20475;-58
2021/09/23 04:00:23;;;;;;;30.83;25.60;;;15.20;99.90;;;;;;5135491;27;20464;-58
2021/09/23 04:02:50;;;;;;;32.13;26.57;;;15.10;99.90;;;;;;5135633;27;20460;-58
2021/09/23 04:05:17;;;;;;;30.27;25.10;;;15.10;99.90;;;;;;5134682;27;20967;-59
2021/09/23 04:07:44;;;;;;;25.20;22.50;;;15.10;99.90;;;;;;5130251;27;20524;-59
2021/09/23 04:10:12;;;;;;;29.80;24.50;;;15.20;99.90;;;;;;5135550;27;20476;-58
2021/09/23 04:12:39;;;;;;;26.63;21.00;;;15.20;99.90;;;;;;5135361;27;20478;-58
2021/09/23 04:15:09;;;;;;;26.70;24.00;;;15.20;99.90;;;;;;5130538;27;20550;-59
2021/09/23 04:17:36;;;;;;;29.37;25.40;;;15.20;99.90;;;;;;5135127;27;20555;-58
2021/09/23 04:20:04;;;;;;;25.60;22.77;;;15.20;99.90;;;;;;5135517;27;20464;-59
2021/09/23 04:22:31;;;;;;;27.70;24.67;;;15.20;99.90;;;;;;5134971;27;20462;-58
2021/09/23 04:24:58;;;;;;;27.93;24.70;;;15.20;99.90;;;;;;5135458;27;20535;-59
2021/09/23 04:27:25;;;;;;;30.40;24.47;;;15.20;99.90;;;;;;5134913;27;20464;-59
2021/09/23 04:29:51;;;;;;;25.70;21.40;;;15.20;99.90;;;;;;5135327;27;20476;-58
2021/09/23 04:32:20;;;;;;;29.40;25.50;;;15.10;99.90;;;;;;5135213;27;20464;-59
2021/09/23 04:34:46;;;;;;;29.33;24.70;;;15.00;99.90;;;;;;5134925;27;20465;-58
2021/09/23 04:37:13;;;;;;;26.43;23.57;;;15.00;99.90;;;;;;5135116;27;20808;-59
2021/09/23 04:39:40;;;;;;;26.40;22.50;;;15.00;99.90;;;;;;5134625;27;20470;-57
2021/09/23 04:42:07;;;;;;;28.70;24.70;;;15.00;99.90;;;;;;5135150;27;20836;-59
2021/09/23 04:44:34;;;;;;;28.77;21.40;;;15.00;99.90;;;;;;5134629;27;20466;-58
2021/09/23 04:47:03;;;;;;;25.27;20.33;;;15.00;99.90;;;;;;5134967;27;20463;-59
2021/09/23 04:49:32;;;;;;;25.23;21.07;;;15.00;99.90;;;;;;5134562;27;21137;-58
2021/09/23 04:52:00;;;;;;;25.40;21.30;;;15.00;99.90;;;;;;5133361;27;20470;-57
2021/09/23 04:54:26;;;;;;;26.27;21.93;;;15.00;99.90;;;;;;5133739;27;20470;-58
2021/09/23 04:56:53;;;;;;;27.60;24.33;;;15.00;99.90;;;;;;5134511;27;20460;-60
2021/09/23 04:59:20;;;;;;;27.23;21.40;;;14.90;99.90;;;;;;5134574;27;20478;-58
2021/09/23 05:01:47;;;;;;;23.80;21.30;;;14.90;99.90;;;;;;5134367;27;20801;-59
2021/09/23 05:04:14;;;;;;;25.93;23.20;;;14.90;99.90;;;;;;5134468;27;20470;-57
2021/09/23 05:06:42;;;;;;;25.40;20.93;;;14.80;99.90;;;;;;5127719;27;20473;-59
2021/09/23 05:09:09;;;;;;;26.70;23.53;;;14.80;99.90;;;;;;5134543;27;20521;-59
2021/09/23 05:11:36;;;;;;;24.70;21.97;;;14.80;99.90;;;;;;5134031;27;20459;-58
2021/09/23 05:14:03;;;;;;;28.73;23.07;;;14.80;99.90;;;;;;5134217;27;20475;-59
2021/09/23 05:16:30;;;;;;;29.57;24.83;;;14.80;99.90;;;;;;5134153;27;20478;-59
2021/09/23 05:18:58;;;;;;;29.63;24.27;;;14.70;99.90;;;;;;5134093;27;20974;-58
2021/09/23 05:21:25;;;;;;;40.57;34.03;;;14.70;99.90;;;;;;5134321;27;20549;-58
2021/09/23 05:23:53;;;;;;;32.60;28.77;;;14.70;99.90;;;;;;5134029;27;21335;-58
2021/09/23 05:26:20;;;;;;;27.50;23.90;;;14.70;99.90;;;;;;5134107;27;20467;-58
2021/09/23 05:28:47;;;;;;;28.97;25.93;;;14.70;99.90;;;;;;5133607;27;20602;-58
2021/09/23 05:31:14;;;;;;;39.10;31.43;;;14.80;99.90;;;;;;5134387;27;20956;-57
2021/09/23 05:33:43;;;;;;;34.63;28.40;;;14.70;99.90;;;;;;5133548;27;20468;-59
2021/09/23 05:36:10;;;;;;;26.60;23.77;;;14.80;99.90;;;;;;5134203;27;20814;-58
2021/09/23 05:38:37;;;;;;;27.93;23.97;;;14.80;99.90;;;;;;5133561;27;20485;-59
2021/09/23 05:41:05;;;;;;;35.70;30.57;;;14.80;99.90;;;;;;5134135;27;20494;-60
2021/09/23 05:43:32;;;;;;;29.73;26.13;;;14.70;99.90;;;;;;5133397;27;20464;-60
2021/09/23 05:45:59;;;;;;;25.93;23.13;;;14.70;99.90;;;;;;5134038;27;20474;-59
2021/09/23 05:48:27;;;;;;;29.67;24.63;;;14.80;99.90;;;;;;5133715;27;20475;-59
2021/09/23 05:50:55;;;;;;;30.37;24.60;;;14.80;99.90;;;;;;5133463;27;20459;-60
2021/09/23 05:53:21;;;;;;;31.60;24.77;;;14.90;99.90;;;;;;5133714;27;20994;-59
2021/09/23 05:55:48;;;;;;;26.20;23.03;;;14.90;99.90;;;;;;5133472;27;20995;-60
2021/09/23 05:58:16;;;;;;;28.10;24.20;;;14.90;99.90;;;;;;5133747;27;20478;-60
2021/09/23 06:00:43;;;;;;;28.57;25.60;;;15.00;99.90;;;;;;5133227;27;20467;-60
2021/09/23 06:03:10;;;;;;;29.73;25.10;;;14.90;99.90;;;;;;5133428;27;20467;-60
2021/09/23 06:05:37;;;;;;;29.23;23.70;;;15.00;99.90;;;;;;5129189;27;20456;-59
2021/09/23 06:08:04;;;;;;;31.60;24.87;;;15.00;99.90;;;;;;5131999;27;20463;-60
2021/09/23 06:10:31;;;;;;;28.27;25.25;;;15.00;99.90;;;;;;5133306;27;21018;-60
2021/09/23 06:12:58;;;;;;;29.40;25.60;;;15.00;99.90;;;;;;5133662;27;20224;-60
2021/09/23 06:15:26;;;;;;;31.17;27.70;;;15.00;99.90;;;;;;5133401;27;20463;-60
2021/09/23 06:17:52;;;;;;;31.50;24.90;;;15.00;99.90;;;;;;5133110;27;20466;-59
2021/09/23 06:20:20;;;;;;;28.00;25.10;;;14.90;99.90;;;;;;5133389;27;20482;-60
2021/09/23 06:22:47;;;;;;;32.67;24.85;;;15.00;99.90;;;;;;5133020;27;20847;-60
2021/09/23 06:25:14;;;;;;;29.58;24.20;;;15.00;99.90;;;;;;5133465;27;20310;-60
2021/09/23 06:27:41;;;;;;;31.30;26.48;;;15.00;99.90;;;;;;5121935;27;20224;-59
2021/09/23 06:30:08;;;;;;;38.88;29.45;;;14.90;99.90;;;;;;5133430;27;20236;-59
2021/09/23 06:32:37;;;;;;;38.27;30.97;;;15.00;99.90;;;;;;5132840;27;20228;-59
2021/09/23 06:35:04;;;;;;;32.73;27.77;;;15.00;99.90;;;;;;5133473;27;20475;-59
2021/09/23 06:37:32;;;;;;;48.25;31.33;;;15.10;99.90;;;;;;5133398;27;20481;-60
2021/09/23 06:39:58;;;;;;;36.20;29.87;;;15.10;99.90;;;;;;5132664;27;20270;-60
2021/09/23 06:42:25;;;;;;;31.50;26.37;;;15.10;99.90;;;;;;5133400;27;20463;-59
2021/09/23 06:44:52;;;;;;;33.10;29.00;;;15.20;99.90;;;;;;5132667;27;20459;-60
2021/09/23 06:47:19;;;;;;;30.90;26.80;;;15.30;99.90;;;;;;5133552;27;20479;-60
2021/09/23 06:49:51;;;;;;;33.23;26.83;;;15.30;99.90;;;;;;5132611;27;20969;-60
2021/09/23 06:52:17;;;;;;;30.93;27.77;;;15.30;99.90;;;;;;5131210;27;20523;-59
2021/09/23 06:54:45;;;;;;;36.67;30.50;;;15.40;99.90;;;;;;5132413;27;20792;-58
2021/09/23 06:57:12;;;;;;;36.40;28.90;;;15.50;99.90;;;;;;5133199;27;20976;-59
2021/09/23 06:59:38;;;;;;;40.20;32.93;;;15.50;99.90;;;;;;5132412;27;20704;-59
2021/09/23 07:02:05;;;;;;;30.60;27.00;;;15.50;99.90;;;;;;5133228;27;20460;-61
2021/09/23 07:04:32;;;;;;;32.30;26.73;;;15.60;99.90;;;;;;5132372;27;20490;-59
2021/09/23 07:07:00;;;;;;;39.03;29.70;;;15.60;99.90;;;;;;5126679;27;20474;-58
2021/09/23 07:09:27;;;;;;;29.20;25.13;;;15.60;99.90;;;;;;5132863;27;21003;-56
2021/09/23 07:11:55;;;;;;;29.07;24.70;;;15.70;99.90;;;;;;5132482;27;21158;-58
2021/09/23 07:14:22;;;;;;;27.43;23.90;;;15.80;99.90;;;;;;5132683;27;20467;-56
2021/09/23 07:16:49;;;;;;;23.50;21.07;;;15.80;99.90;;;;;;5132758;27;20801;-59
2021/09/23 07:19:15;;;;;;;29.70;25.70;;;15.90;99.90;;;;;;5134908;27;20832;-57
2021/09/23 07:21:42;;;;;;;28.50;22.13;;;15.90;99.90;;;;;;5136240;27;20459;-58
2021/09/23 07:24:11;;;;;;;36.97;28.70;;;16.00;99.90;;;;;;5136526;27;20462;-59
2021/09/23 07:26:40;;;;;;;33.47;28.80;;;16.10;99.90;;;;;;5136238;27;20467;-58
2021/09/23 07:29:07;;;;;;;35.23;25.87;;;16.10;99.90;;;;;;5136258;27;21135;-57
2021/09/23 07:31:34;;;;;;;33.93;29.70;;;16.20;99.90;;;;;;5136584;27;20464;-57
2021/09/23 07:34:04;;;;;;;25.40;22.70;;;16.20;99.90;;;;;;5135781;27;20486;-58
2021/09/23 07:36:31;;;;;;;30.80;24.90;;;16.30;99.90;;;;;;5136353;27;20464;-58
2021/09/23 07:38:58;;;;;;;30.77;27.33;;;16.50;99.90;;;;;;5135911;27;21333;-58
2021/09/23 07:41:26;;;;;;;32.97;24.43;;;16.50;99.90;;;;;;5136238;27;20482;-58
2021/09/23 07:43:54;;;;;;;27.90;22.90;;;16.60;99.90;;;;;;5135401;27;20474;-58
2021/09/23 07:46:20;;;;;;;30.20;26.20;;;16.70;99.90;;;;;;5136389;27;20855;-57
2021/09/23 07:48:53;;;;;;;31.47;27.80;;;16.80;99.90;;;;;;5135502;27;20468;-57
2021/09/23 07:51:20;;;;;;;32.80;28.43;;;16.80;99.90;;;;;;5133335;27;20472;-57
2021/09/23 07:53:46;;;;;;;30.03;26.83;;;16.80;99.90;;;;;;5135342;27;20474;-57
2021/09/23 07:56:14;;;;;;;33.87;26.47;;;16.90;99.90;;;;;;5136087;27;20470;-58
2021/09/23 07:58:42;;;;;;;32.43;27.57;;;17.00;99.90;;;;;;5121930;27;20555;-58
2021/09/23 08:01:09;;;;;;;37.30;29.20;;;17.10;99.90;;;;;;5135918;27;20482;-57
2021/09/23 08:03:36;;;;;;;27.80;24.60;;;17.10;99.90;;;;;;5135774;27;20468;-58
2021/09/23 08:06:03;;;;;;;30.53;25.60;;;17.20;99.90;;;;;;5135188;27;20466;-58
2021/09/23 08:08:30;;;;;;;30.90;24.43;;;17.20;99.90;;;;;;5135849;27;20502;-58
2021/09/23 08:10:57;;;;;;;25.63;22.43;;;17.30;99.90;;;;;;5135111;27;20957;-60
2021/09/23 08:13:24;;;;;;;29.63;25.33;;;17.40;99.90;;;;;;5135706;27;20477;-57
2021/09/23 08:15:52;;;;;;;31.53;25.00;;;17.50;99.90;;;;;;5129833;27;20463;-57
2021/09/23 08:18:19;;;;;;;28.03;24.87;;;17.60;99.90;;;;;;5135640;27;20463;-58
2021/09/23 08:20:47;;;;;;;27.33;24.20;;;17.70;99.90;;;;;;5135032;27;21097;-58
2021/09/23 08:23:14;;;;;;;31.30;25.23;;;17.70;99.90;;;;;;5135295;27;20482;-58
2021/09/23 08:25:41;;;;;;;27.60;22.00;;;17.80;99.90;;;;;;5135274;27;20475;-58
2021/09/23 08:28:11;;;;;;;31.23;25.00;;;17.80;99.90;;;;;;5134932;27;20459;-58
2021/09/23 08:30:38;;;;;;;26.40;22.20;;;17.90;99.90;;;;;;5135135;27;20516;-58
2021/09/23 08:33:06;;;;;;;25.20;19.40;;;17.90;99.90;;;;;;5134792;27;20468;-58
2021/09/23 08:35:33;;;;;;;28.30;22.63;;;17.90;99.90;;;;;;5135041;27;20468;-56
2021/09/23 08:38:00;;;;;;;30.93;23.13;;;18.00;99.90;;;;;;5134602;27;20470;-56
2021/09/23 08:40:26;;;;;;;29.40;23.53;;;18.10;99.90;;;;;;5134955;27;20486;-58
2021/09/23 08:42:53;;;;;;;28.20;22.53;;;18.10;99.90;;;;;;5134956;27;20463;-57
2021/09/23 08:45:22;;;;;;;25.80;19.80;;;18.10;99.90;;;;;;5134930;27;20467;-58
2021/09/23 08:47:49;;;;;;;29.93;21.57;;;18.20;99.90;;;;;;5134514;27;20464;-59
2021/09/23 08:50:18;;;;;;;26.73;20.87;;;18.20;99.90;;;;;;5134715;27;20477;-59
2021/09/23 08:52:46;;;;;;;24.17;20.77;;;18.20;99.90;;;;;;5131422;27;20468;-59
2021/09/23 08:55:25;;;;;;;26.20;18.83;;;18.20;99.90;;;;;;5134709;27;20468;-58
2021/09/23 08:57:52;;;;;;;21.40;19.20;;;18.30;99.90;;;;;;5134488;27;20463;-57
2021/09/23 09:00:21;;;;;;;22.67;20.20;;;18.30;99.90;;;;;;5134558;27;20482;-59
2021/09/23 09:03:01;;;;;;;19.67;17.60;;;18.30;99.90;;;;;;5133942;27;20528;-58
2021/09/23 09:05:29;;;;;;;18.80;16.70;;;18.40;99.90;;;;;;5133983;27;20467;-59
2021/09/23 09:08:05;;;;;;;18.33;16.30;;;18.40;99.90;;;;;;5134200;27;20452;-58
2021/09/23 09:10:33;;;;;;;21.57;18.70;;;18.50;99.90;;;;;;5134773;27;20459;-58
2021/09/23 09:13:02;;;;;;;18.47;16.50;;;18.50;99.90;;;;;;5133916;27;20459;-59
2021/09/23 09:15:31;;;;;;;20.47;18.37;;;18.60;99.90;;;;;;5134248;27;20979;-58
2021/09/23 09:17:58;;;;;;;18.63;16.00;;;18.60;99.90;;;;;;5134088;27;20989;-60
2021/09/23 09:20:25;;;;;;;19.53;17.57;;;18.70;99.90;;;;;;5134225;27;20481;-59
2021/09/23 09:22:53;;;;;;;20.13;16.83;;;18.70;99.90;;;;;;5133802;27;20462;-58
2021/09/23 09:25:20;;;;;;;23.33;19.40;;;18.80;99.90;;;;;;5134174;27;20460;-59
2021/09/23 09:27:49;;;;;;;18.87;16.97;;;18.70;99.90;;;;;;5133676;27;20463;-55
2021/09/23 09:30:19;;;;;;;18.40;15.97;;;18.80;99.90;;;;;;5134098;27;20463;-59
2021/09/23 09:32:48;;;;;;;19.70;16.23;;;18.80;99.90;;;;;;5134139;27;20471;-58
2021/09/23 09:35:17;;;;;;;19.70;16.20;;;18.90;99.90;;;;;;5133365;27;20487;-59
2021/09/23 09:37:46;;;;;;;25.93;18.00;;;19.00;99.90;;;;;;5134006;27;20538;-59
2021/09/23 09:40:19;;;;;;;22.10;19.10;;;19.00;99.90;;;;;;5133528;27;20468;-59
2021/09/23 09:42:49;;;;;;;17.67;15.33;;;19.00;99.90;;;;;;5133595;27;20467;-58
2021/09/23 09:45:19;;;;;;;24.43;18.10;;;19.10;99.90;;;;;;5132796;27;20972;-59
2021/09/23 09:47:52;;;;;;;22.93;18.33;;;19.10;99.90;;;;;;5134031;27;20551;-60
2021/09/23 09:50:21;;;;;;;21.33;19.10;;;19.10;99.90;;;;;;5133509;27;20464;-60
2021/09/23 09:52:49;;;;;;;18.37;16.17;;;19.20;99.90;;;;;;5123453;27;20819;-60
2021/09/23 09:55:21;;;;;;;23.00;17.87;;;19.20;99.90;;;;;;5132610;27;20456;-60
2021/09/23 09:57:50;;;;;;;25.00;20.97;;;19.30;99.90;;;;;;5133985;27;20468;-59
2021/09/23 10:00:20;;;;;;;22.53;18.93;;;19.30;99.90;;;;;;5112765;27;20984;-60
2021/09/23 10:02:47;;;;;;;19.23;16.07;;;19.40;99.90;;;;;;5112215;27;20521;-58
2021/09/23 10:05:17;;;;;;;18.87;15.43;;;19.40;99.90;;;;;;5112757;27;20478;-60
2021/09/23 10:07:46;;;;;;;19.77;15.70;;;19.50;99.90;;;;;;5113407;27;20456;-59
2021/09/23 10:10:14;;;;;;;20.37;16.67;;;19.50;99.90;;;;;;5112492;27;20476;-59
2021/09/23 10:12:44;;;;;;;20.83;16.70;;;19.50;99.90;;;;;;5113434;27;20479;-60
2021/09/23 10:15:14;;;;;;;16.47;14.53;;;19.60;99.90;;;;;;5112914;27;20468;-60
2021/09/23 10:17:42;;;;;;;22.03;15.60;;;19.70;99.90;;;;;;5113088;27;20970;-60
2021/09/23 10:20:10;;;;;;;18.80;16.33;;;19.80;99.90;;;;;;5112682;27;20475;-60
2021/09/23 10:22:38;;;;;;;17.27;15.07;;;19.80;99.60;;;;;;5113149;27;21019;-60
2021/09/23 10:25:08;;;;;;;19.80;16.20;;;19.90;99.60;;;;;;5112765;27;20487;-60
2021/09/23 10:30:22;;;;;;;17.57;13.70;;;19.90;98.90;;;;;;5112808;27;20462;-60
2021/09/23 10:32:49;;;;;;;20.77;17.10;;;19.90;98.60;;;;;;5113036;27;20474;-58
2021/09/23 10:35:22;;;;;;;19.90;14.10;;;19.90;98.40;;;;;;5112370;27;20504;-58
2021/09/23 10:37:49;;;;;;;14.77;13.30;;;20.00;98.60;;;;;;5113111;27;20787;-59
2021/09/23 10:40:17;;;;;;;19.20;16.00;;;20.00;98.50;;;;;;5112393;27;20564;-59
2021/09/23 10:42:45;;;;;;;16.27;13.53;;;20.00;98.40;;;;;;5112940;27;20479;-60
2021/09/23 10:45:15;;;;;;;16.43;14.07;;;20.00;98.60;;;;;;5112542;27;20467;-59
2021/09/23 10:47:47;;;;;;;16.60;14.83;;;19.90;98.50;;;;;;5112975;27;20810;-60
2021/09/23 10:50:14;;;;;;;13.80;12.37;;;20.00;98.40;;;;;;5112184;27;20508;-59
2021/09/23 10:52:42;;;;;;;15.63;13.40;;;20.00;98.30;;;;;;5112987;27;20465;-60
2021/09/23 10:55:09;;;;;;;15.30;11.47;;;20.00;98.20;;;;;;5116200;27;20470;-60
2021/09/23 10:57:36;;;;;;;14.53;12.33;;;20.00;98.20;;;;;;5116688;27;20471;-59
2021/09/23 11:00:07;;;;;;;16.03;11.83;;;20.00;98.10;;;;;;5116314;27;20479;-58
2021/09/23 11:02:34;;;;;;;14.10;12.13;;;20.00;98.10;;;;;;5116816;27;20467;-58
2021/09/23 11:05:05;;;;;;;12.60;11.40;;;20.00;98.00;;;;;;5115932;27;20471;-58
2021/09/23 11:07:34;;;;;;;13.77;11.60;;;20.10;98.00;;;;;;5116872;27;20468;-59
2021/09/23 11:10:10;;;;;;;10.57;9.50;;;20.10;97.70;;;;;;5116104;27;20954;-57
2021/09/23 11:12:39;;;;;;;13.20;11.40;;;20.20;97.70;;;;;;5116535;27;20520;-58
2021/09/23 11:15:08;;;;;;;14.20;11.10;;;20.30;97.70;;;;;;5115761;27;20468;-59
2021/09/23 11:17:36;;;;;;;11.23;10.20;;;20.30;97.60;;;;;;5116490;27;20453;-59
2021/09/23 11:20:08;;;;;;;11.17;9.43;;;20.30;97.20;;;;;;5115769;27;20471;-58
2021/09/23 11:22:38;;;;;;;9.77;8.60;;;20.40;97.20;;;;;;5116373;27;20456;-59
2021/09/23 11:25:08;;;;;;;12.33;10.17;;;20.40;97.00;;;;;;5115862;27;20976;-58
2021/09/23 11:27:39;;;;;;;12.80;11.50;;;20.50;96.80;;;;;;5116370;27;20464;-59
2021/09/23 11:30:10;;;;;;;11.70;10.50;;;20.50;96.80;;;;;;5115621;27;20484;-59
2021/09/23 11:32:48;;;;;;;12.87;11.00;;;20.60;96.70;;;;;;5116061;27;20471;-59
2021/09/23 11:35:18;;;;;;;16.77;10.27;;;20.60;96.50;;;;;;5115578;27;20468;-58
2021/09/23 11:37:45;;;;;;;11.53;9.67;;;20.60;96.10;;;;;;5116264;27;20884;-58
2021/09/23 11:40:13;;;;;;;9.80;8.70;;;20.70;96.00;;;;;;5115197;27;20477;-58
2021/09/23 11:42:44;;;;;;;20.60;18.20;;;20.60;95.80;;;;;;5115909;27;20464;-59
2021/09/23 11:45:16;;;;;;;13.57;11.63;;;20.70;97.80;;;;;;5120229;27;20472;-60
2021/09/23 11:47:45;;;;;;;19.17;17.13;;;20.70;97.20;;;;;;5126969;27;20775;-57
2021/09/23 11:50:23;;;;;;;10.17;8.00;;;20.70;97.30;;;;;;5130577;27;20463;-59
2021/09/23 11:52:54;;;;;;;10.23;7.90;;;20.70;96.60;;;;;;5134640;27;20473;-59
2021/09/23 11:55:21;;;;;;;9.90;8.43;;;20.70;95.70;;;;;;5115260;27;20464;-59
2021/09/23 11:57:48;;;;;;;7.90;7.20;;;20.70;96.10;;;;;;5126986;27;20467;-58
2021/09/23 12:00:15;;;;;;;10.97;8.47;;;20.70;95.90;;;;;;5130396;27;20468;-57
2021/09/23 12:02:54;;;;;;;10.33;6.03;;;20.70;95.60;;;;;;5131314;27;20479;-59
2021/09/23 12:05:28;;;;;;;6.43;5.83;;;20.70;95.70;;;;;;5134884;27;20530;-59
2021/09/23 12:07:55;;;;;;;14.80;6.60;;;20.70;95.40;;;;;;5135503;27;20463;-58
2021/09/23 12:10:22;;;;;;;10.07;6.63;;;20.70;95.30;;;;;;5135381;27;20468;-58
2021/09/23 12:12:57;;;;;;;8.70;5.60;;;20.70;95.20;;;;;;5133200;27;20517;-58
2021/09/23 12:15:25;;;;;;;9.70;7.93;;;20.80;95.20;;;;;;5128615;27;20510;-56
2021/09/23 12:17:57;;;;;;;6.87;6.27;;;20.80;95.60;;;;;;5134369;27;20512;-56
2021/09/23 12:20:39;;;;;;;7.97;5.80;;;20.90;95.40;;;;;;5132764;27;20551;-59
2021/09/23 12:23:28;;;;;;;7.47;5.47;;;20.90;95.20;;;;;;5117511;27;20475;-58
2021/09/23 12:26:15;;;;;;;5.93;5.40;;;20.90;95.10;;;;;;5135444;27;20494;-59
2021/09/23 12:28:47;;;;;;;8.13;5.80;;;20.90;95.20;;;;;;5134999;27;20459;-58
2021/09/23 12:31:16;;;;;;;6.30;5.70;;;20.90;95.00;;;;;;5125798;27;21546;-58
2021/09/23 12:33:52;;;;;;;6.47;5.97;;;21.00;95.00;;;;;;5132083;27;20463;-59
2021/09/23 12:36:25;;;;;;;7.27;6.67;;;21.00;94.90;;;;;;5134840;27;20451;-57